PRIVATE WETTERSTATION BILLIGHEIM-ALLFELD                       ZURCK
Wetterdaten: Dienstag, 01.02.2022
Datum Zeit Temp. A. Temp. A. min Temp. A. max Feuchte A. Luftdruck Regen Wind Richtung Richtung Sonnenschein ET Solar Taupunkt Windchill Windben Empfang
01.02.2022 00:00 2,4 C 2,4 C 2,5 C 93 % 1015,2 hPa 0,0 l/m 11,3 km/h (2 Bft) NW 315 0 min 0,000 mm 0 W/m 1,4 C -1,8 C 27,4 km/h (4 Bft) 100 %
01.02.2022 00:10 2,4 C 2,4 C 2,5 C 93 % 1015,5 hPa 0,2 l/m 9,7 km/h (2 Bft) NW 315 0 min 0,000 mm 0 W/m 1,4 C -0,6 C 24,1 km/h (4 Bft) 100 %
01.02.2022 00:20 2,3 C 2,3 C 2,4 C 93 % 1015,9 hPa 0,0 l/m 3,2 km/h (1 Bft) NW 315 0 min 0,000 mm 0 W/m 1,3 C 2,3 C 11,3 km/h (2 Bft) 100 %
01.02.2022 00:30 2,2 C 2,2 C 2,3 C 93 % 1016,0 hPa 0,0 l/m 3,2 km/h (1 Bft) NW 315 0 min 0,000 mm 0 W/m 1,2 C 2,2 C 11,3 km/h (2 Bft) 100 %
01.02.2022 00:40 2,1 C 2,1 C 2,2 C 93 % 1016,0 hPa 0,0 l/m 1,6 km/h (1 Bft) NW 315 0 min 0,000 mm 0 W/m 1,1 C 2,1 C 9,7 km/h (2 Bft) 100 %
01.02.2022 00:50 2,0 C 2,0 C 2,1 C 93 % 1016,1 hPa 0,0 l/m 4,8 km/h (1 Bft) NW 315 0 min 0,000 mm 0 W/m 1,0 C 2,0 C 14,5 km/h (3 Bft) 100 %
01.02.2022 01:00 1,9 C 1,9 C 2,0 C 93 % 1016,3 hPa 0,0 l/m 6,4 km/h (2 Bft) NW 315 0 min 0,000 mm 0 W/m 0,9 C 1,9 C 16,1 km/h (3 Bft) 100 %
01.02.2022 01:10 1,8 C 1,8 C 1,9 C 93 % 1016,4 hPa 0,0 l/m 6,4 km/h (2 Bft) NW 315 0 min 0,000 mm 0 W/m 0,8 C 1,8 C 19,3 km/h (3 Bft) 100 %
01.02.2022 01:20 1,8 C 1,8 C 1,9 C 93 % 1016,4 hPa 0,0 l/m 8,0 km/h (2 Bft) NW 315 0 min 0,000 mm 0 W/m 0,8 C 0,2 C 17,7 km/h (3 Bft) 100 %
01.02.2022 01:30 1,9 C 1,8 C 1,9 C 93 % 1016,7 hPa 0,0 l/m 9,7 km/h (2 Bft) NW 315 0 min 0,000 mm 0 W/m 0,9 C -1,1 C 24,1 km/h (4 Bft) 100 %
01.02.2022 01:40 1,9 C 1,9 C 1,9 C 93 % 1016,7 hPa 0,0 l/m 6,4 km/h (2 Bft) NW 315 0 min 0,000 mm 0 W/m 0,9 C 1,9 C 14,5 km/h (3 Bft) 100 %
01.02.2022 01:50 1,9 C 1,9 C 1,9 C 93 % 1017,1 hPa 0,1 l/m 6,4 km/h (2 Bft) W-NW 292 0 min 0,000 mm 0 W/m 0,9 C 1,9 C 20,9 km/h (4 Bft) 100 %
01.02.2022 02:00 1,9 C 1,9 C 1,9 C 93 % 1017,4 hPa 0,2 l/m 9,7 km/h (2 Bft) NW 315 0 min 0,000 mm 0 W/m 0,9 C -1,1 C 25,7 km/h (4 Bft) 100 %
01.02.2022 02:10 1,7 C 1,7 C 1,9 C 93 % 1017,5 hPa 0,4 l/m 8,0 km/h (2 Bft) NW 315 0 min 0,000 mm 0 W/m 0,7 C 0,1 C 19,3 km/h (3 Bft) 100 %
01.02.2022 02:20 1,6 C 1,6 C 1,7 C 93 % 1017,5 hPa 0,2 l/m 1,6 km/h (1 Bft) NW 315 0 min 0,000 mm 0 W/m 0,6 C 1,6 C 9,7 km/h (2 Bft) 100 %
01.02.2022 02:30 1,4 C 1,4 C 1,6 C 93 % 1017,6 hPa 0,1 l/m 0,0 km/h (0 Bft) N 0 0 min 0,000 mm 0 W/m 0,4 C 1,4 C 0,0 km/h (0 Bft) 100 %
01.02.2022 02:40 1,4 C 1,4 C 1,4 C 93 % 1017,6 hPa 0,0 l/m 0,0 km/h (0 Bft) NW 315 0 min 0,000 mm 0 W/m 0,4 C 1,4 C 3,2 km/h (1 Bft) 100 %
01.02.2022 02:50 1,6 C 1,4 C 1,6 C 92 % 1017,7 hPa 0,0 l/m 1,6 km/h (1 Bft) W-NW 292 0 min 0,000 mm 0 W/m 0,4 C 1,6 C 9,7 km/h (2 Bft) 100 %
01.02.2022 03:00 1,8 C 1,6 C 1,8 C 92 % 1017,8 hPa 0,2 l/m 6,4 km/h (2 Bft) W-NW 292 0 min 0,000 mm 0 W/m 0,6 C 1,8 C 17,7 km/h (3 Bft) 100 %
01.02.2022 03:10 1,8 C 1,8 C 1,8 C 92 % 1017,7 hPa 0,0 l/m 6,4 km/h (2 Bft) W-NW 292 0 min 0,000 mm 0 W/m 0,6 C 1,8 C 19,3 km/h (3 Bft) 100 %
01.02.2022 03:20 1,7 C 1,7 C 1,8 C 93 % 1018,0 hPa 0,0 l/m 9,7 km/h (2 Bft) W-NW 292 0 min 0,000 mm 0 W/m 0,7 C -1,3 C 24,1 km/h (4 Bft) 100 %
01.02.2022 03:30 1,7 C 1,7 C 1,7 C 92 % 1018,2 hPa 0,2 l/m 9,7 km/h (2 Bft) W-NW 292 0 min 0,000 mm 0 W/m 0,5 C -1,3 C 25,7 km/h (4 Bft) 100 %
01.02.2022 03:40 1,6 C 1,6 C 1,7 C 92 % 1018,6 hPa 0,0 l/m 9,7 km/h (2 Bft) W-NW 292 0 min 0,000 mm 0 W/m 0,4 C -1,4 C 22,5 km/h (4 Bft) 100 %
01.02.2022 03:50 1,6 C 1,6 C 1,6 C 92 % 1018,5 hPa 0,0 l/m 9,7 km/h (2 Bft) NW 315 0 min 0,000 mm 0 W/m 0,4 C -1,4 C 24,1 km/h (4 Bft) 100 %
01.02.2022 04:00 1,7 C 1,6 C 1,7 C 92 % 1018,5 hPa 0,0 l/m 9,7 km/h (2 Bft) NW 315 0 min 0,000 mm 0 W/m 0,5 C -1,3 C 22,5 km/h (4 Bft) 100 %
01.02.2022 04:10 1,7 C 1,7 C 1,7 C 92 % 1018,8 hPa 0,2 l/m 11,3 km/h (2 Bft) W-NW 292 0 min 0,000 mm 0 W/m 0,5 C -2,6 C 27,4 km/h (4 Bft) 100 %
01.02.2022 04:20 1,7 C 1,7 C 1,8 C 92 % 1018,8 hPa 0,0 l/m 9,7 km/h (2 Bft) W-NW 292 0 min 0,000 mm 0 W/m 0,5 C -1,3 C 19,3 km/h (3 Bft) 100 %
01.02.2022 04:30 1,7 C 1,7 C 1,8 C 93 % 1018,9 hPa 0,0 l/m 11,3 km/h (2 Bft) W-NW 292 0 min 0,000 mm 0 W/m 0,7 C -2,6 C 24,1 km/h (4 Bft) 100 %
01.02.2022 04:40 1,8 C 1,7 C 1,8 C 93 % 1019,0 hPa 0,0 l/m 12,9 km/h (3 Bft) W-NW 292 0 min 0,000 mm 0 W/m 0,8 C -3,5 C 29,0 km/h (5 Bft) 100 %
01.02.2022 04:50 1,7 C 1,7 C 1,8 C 93 % 1019,0 hPa 0,0 l/m 11,3 km/h (2 Bft) W-NW 292 0 min 0,000 mm 0 W/m 0,7 C -2,6 C 24,1 km/h (4 Bft) 100 %
01.02.2022 05:00 1,7 C 1,7 C 1,7 C 93 % 1019,2 hPa 0,0 l/m 14,5 km/h (3 Bft) NW 315 0 min 0,000 mm 0 W/m 0,7 C -4,6 C 30,6 km/h (5 Bft) 100 %
01.02.2022 05:10 1,6 C 1,6 C 1,7 C 92 % 1019,4 hPa 0,0 l/m 11,3 km/h (2 Bft) W-NW 292 0 min 0,000 mm 0 W/m 0,4 C -2,7 C 22,5 km/h (4 Bft) 89 %
01.02.2022 05:20 1,5 C 1,5 C 1,6 C 92 % 1019,5 hPa 0,0 l/m 17,7 km/h (3 Bft) NW 315 0 min 0,000 mm 0 W/m 0,3 C -6,6 C 35,4 km/h (5 Bft) 100 %
01.02.2022 05:30 1,4 C 1,4 C 1,5 C 92 % 1019,5 hPa 0,0 l/m 12,9 km/h (3 Bft) NW 315 0 min 0,000 mm 0 W/m 0,2 C -4,0 C 29,0 km/h (5 Bft) 100 %
01.02.2022 05:40 1,4 C 1,4 C 1,4 C 91 % 1019,5 hPa 0,0 l/m 11,3 km/h (2 Bft) W-NW 292 0 min 0,000 mm 0 W/m 0,1 C -2,9 C 22,5 km/h (4 Bft) 100 %
01.02.2022 05:50 1,4 C 1,4 C 1,4 C 91 % 1019,5 hPa 0,0 l/m 11,3 km/h (2 Bft) W-NW 292 0 min 0,000 mm 0 W/m 0,1 C -2,9 C 20,9 km/h (4 Bft) 100 %
01.02.2022 06:00 1,4 C 1,4 C 1,4 C 90 % 1019,7 hPa 0,0 l/m 11,3 km/h (2 Bft) W-NW 292 0 min 0,000 mm 0 W/m -0,1 C -2,9 C 25,7 km/h (4 Bft) 100 %
01.02.2022 06:10 1,3 C 1,3 C 1,4 C 90 % 1019,9 hPa 0,0 l/m 11,3 km/h (2 Bft) NW 315 0 min 0,000 mm 0 W/m -0,2 C -3,0 C 25,7 km/h (4 Bft) 100 %
01.02.2022 06:20 1,3 C 1,3 C 1,4 C 90 % 1020,3 hPa 0,0 l/m 8,0 km/h (2 Bft) W-NW 292 0 min 0,000 mm 0 W/m -0,2 C -0,3 C 20,9 km/h (4 Bft) 100 %
01.02.2022 06:30 1,2 C 1,2 C 1,3 C 90 % 1020,1 hPa 0,0 l/m 8,0 km/h (2 Bft) W-NW 292 0 min 0,000 mm 0 W/m -0,3 C -0,4 C 22,5 km/h (4 Bft) 100 %
01.02.2022 06:40 1,2 C 1,2 C 1,2 C 90 % 1019,9 hPa 0,0 l/m 4,8 km/h (1 Bft) W-NW 292 0 min 0,000 mm 0 W/m -0,3 C 1,2 C 16,1 km/h (3 Bft) 100 %
01.02.2022 06:50 1,1 C 1,1 C 1,2 C 90 % 1020,1 hPa 0,0 l/m 3,2 km/h (1 Bft) W-NW 292 0 min 0,000 mm 0 W/m -0,4 C 1,1 C 9,7 km/h (2 Bft) 100 %
01.02.2022 07:00 1,1 C 1,1 C 1,2 C 90 % 1020,2 hPa 0,0 l/m 4,8 km/h (1 Bft) W 270 0 min 0,000 mm 0 W/m -0,4 C 1,1 C 17,7 km/h (3 Bft) 100 %
01.02.2022 07:10 1,1 C 1,1 C 1,2 C 90 % 1020,2 hPa 0,0 l/m 0,0 km/h (0 Bft) W 270 0 min 0,000 mm 0 W/m -0,4 C 1,1 C 6,4 km/h (2 Bft) 100 %
01.02.2022 07:20 1,1 C 1,1 C 1,1 C 90 % 1020,3 hPa 0,0 l/m 4,8 km/h (1 Bft) W-NW 292 0 min 0,000 mm 0 W/m -0,4 C 1,1 C 17,7 km/h (3 Bft) 100 %
01.02.2022 07:30 1,1 C 1,1 C 1,1 C 89 % 1020,2 hPa 0,0 l/m 8,0 km/h (2 Bft) W-NW 292 0 min 0,000 mm 0 W/m -0,5 C -0,5 C 19,3 km/h (3 Bft) 100 %
01.02.2022 07:40 1,1 C 1,1 C 1,1 C 89 % 1020,5 hPa 0,0 l/m 8,0 km/h (2 Bft) W-NW 292 0 min 0,000 mm 0 W/m -0,5 C -0,5 C 20,9 km/h (4 Bft) 100 %
01.02.2022 07:50 1,2 C 1,1 C 1,2 C 89 % 1020,7 hPa 0,0 l/m 9,7 km/h (2 Bft) W-NW 292 0 min 0,000 mm 0 W/m -0,4 C -1,9 C 22,5 km/h (4 Bft) 100 %
01.02.2022 08:00 1,2 C 1,2 C 1,2 C 89 % 1021,0 hPa 0,0 l/m 8,0 km/h (2 Bft) W-NW 292 0 min 0,000 mm 0 W/m -0,4 C -0,4 C 17,7 km/h (3 Bft) 100 %
01.02.2022 08:10 1,3 C 1,2 C 1,3 C 88 % 1021,2 hPa 0,0 l/m 8,0 km/h (2 Bft) W-NW 292 0 min 0,000 mm 5 W/m -0,5 C -0,3 C 19,3 km/h (3 Bft) 100 %
01.02.2022 08:20 1,3 C 1,3 C 1,3 C 88 % 1020,9 hPa 0,0 l/m 6,4 km/h (2 Bft) W-NW 292 0 min 0,000 mm 11 W/m -0,5 C 1,3 C 20,9 km/h (4 Bft) 100 %
01.02.2022 08:30 1,3 C 1,3 C 1,3 C 88 % 1020,6 hPa 0,0 l/m 6,4 km/h (2 Bft) W 270 0 min 0,000 mm 16 W/m -0,5 C 1,3 C 19,3 km/h (3 Bft) 100 %
01.02.2022 08:40 1,4 C 1,3 C 1,4 C 87 % 1020,7 hPa 0,0 l/m 6,4 km/h (2 Bft) W-NW 292 0 min 0,000 mm 25 W/m -0,5 C 1,4 C 19,3 km/h (3 Bft) 100 %
01.02.2022 08:50 1,4 C 1,3 C 1,4 C 86 % 1020,8 hPa 0,0 l/m 9,7 km/h (2 Bft) W 270 0 min 0,000 mm 28 W/m -0,7 C -1,7 C 20,9 km/h (4 Bft) 100 %
01.02.2022 09:00 1,6 C 1,4 C 1,6 C 85 % 1021,0 hPa 0,0 l/m 9,7 km/h (2 Bft) W 270 0 min 0,025 mm 44 W/m -0,6 C -1,4 C 24,1 km/h (4 Bft) 100 %
01.02.2022 09:10 1,7 C 1,5 C 1,7 C 85 % 1020,9 hPa 0,0 l/m 11,3 km/h (2 Bft) W 270 0 min 0,000 mm 47 W/m -0,5 C -2,6 C 30,6 km/h (5 Bft) 100 %
01.02.2022 09:20 1,7 C 1,7 C 1,7 C 85 % 1021,2 hPa 0,0 l/m 9,7 km/h (2 Bft) W 270 0 min 0,000 mm 42 W/m -0,5 C -1,3 C 25,7 km/h (4 Bft) 100 %
01.02.2022 09:30 1,7 C 1,7 C 1,7 C 85 % 1021,4 hPa 0,0 l/m 8,0 km/h (2 Bft) W 270 0 min 0,000 mm 35 W/m -0,5 C 0,1 C 19,3 km/h (3 Bft) 100 %
01.02.2022 09:40 1,7 C 1,7 C 1,7 C 85 % 1021,1 hPa 0,0 l/m 9,7 km/h (2 Bft) W 270 0 min 0,000 mm 25 W/m -0,5 C -1,3 C 25,7 km/h (4 Bft) 90 %
01.02.2022 09:50 1,7 C 1,7 C 1,7 C 85 % 1021,1 hPa 0,0 l/m 6,4 km/h (2 Bft) W 270 0 min 0,000 mm 28 W/m -0,5 C 1,7 C 19,3 km/h (3 Bft) 100 %
01.02.2022 10:00 1,7 C 1,7 C 1,8 C 86 % 1021,2 hPa 0,0 l/m 6,4 km/h (2 Bft) W-SW 247 0 min 0,025 mm 63 W/m -0,4 C 1,7 C 16,1 km/h (3 Bft) 100 %
01.02.2022 10:10 1,8 C 1,8 C 1,8 C 86 % 1021,3 hPa 0,0 l/m 6,4 km/h (2 Bft) W-SW 247 0 min 0,000 mm 69 W/m -0,3 C 1,8 C 19,3 km/h (3 Bft) 100 %
01.02.2022 10:20 1,9 C 1,8 C 1,9 C 86 % 1021,1 hPa 0,0 l/m 8,0 km/h (2 Bft) W 270 0 min 0,000 mm 79 W/m -0,2 C 0,3 C 17,7 km/h (3 Bft) 100 %
01.02.2022 10:30 1,9 C 1,9 C 1,9 C 87 % 1020,9 hPa 0,0 l/m 8,0 km/h (2 Bft) SW 225 0 min 0,000 mm 102 W/m -0,0 C 0,3 C 17,7 km/h (3 Bft) 100 %
01.02.2022 10:40 2,0 C 1,9 C 2,0 C 87 % 1021,0 hPa 0,0 l/m 8,0 km/h (2 Bft) W-SW 247 0 min 0,000 mm 102 W/m 0,1 C 0,5 C 24,1 km/h (4 Bft) 100 %
01.02.2022 10:50 2,1 C 2,0 C 2,1 C 87 % 1021,0 hPa 0,0 l/m 8,0 km/h (2 Bft) W-SW 247 0 min 0,000 mm 100 W/m 0,2 C 0,6 C 25,7 km/h (4 Bft) 100 %
01.02.2022 11:00 2,2 C 2,1 C 2,2 C 87 % 1020,9 hPa 0,0 l/m 8,0 km/h (2 Bft) W-SW 247 0 min 0,051 mm 109 W/m 0,3 C 0,7 C 22,5 km/h (4 Bft) 100 %
01.02.2022 11:10 2,3 C 2,2 C 2,3 C 87 % 1020,9 hPa 0,0 l/m 6,4 km/h (2 Bft) W-SW 247 0 min 0,000 mm 113 W/m 0,4 C 2,3 C 19,3 km/h (3 Bft) 100 %
01.02.2022 11:20 2,3 C 2,3 C 2,3 C 87 % 1020,7 hPa 0,0 l/m 8,0 km/h (2 Bft) W-SW 247 0 min 0,000 mm 114 W/m 0,4 C 0,8 C 22,5 km/h (4 Bft) 100 %
01.02.2022 11:30 2,4 C 2,3 C 2,4 C 87 % 1020,7 hPa 0,0 l/m 11,3 km/h (2 Bft) SW 225 0 min 0,000 mm 144 W/m 0,5 C -1,8 C 32,2 km/h (5 Bft) 100 %
01.02.2022 11:50 2,5 C 2,3 C 2,6 C 86 % 1020,2 hPa 0,0 l/m 11,0 km/h (2 Bft) SW 230 0 min 0,001 mm 97 W/m 0,4 C -1,4 C 37,0 km/h (5 Bft) 100 %
01.02.2022 12:00 2,5 C 2,5 C 2,5 C 86 % 1020,1 hPa 0,0 l/m 15,4 km/h (3 Bft) W-SW 248 0 min 0,050 mm 97 W/m 0,4 C -4,2 C 35,4 km/h (5 Bft) 100 %
01.02.2022 12:10 2,4 C 2,4 C 2,5 C 85 % 1019,9 hPa 0,0 l/m 12,3 km/h (3 Bft) W-SW 257 0 min 0,000 mm 65 W/m 0,1 C -2,4 C 32,2 km/h (5 Bft) 100 %
01.02.2022 12:20 2,4 C 2,4 C 2,5 C 85 % 1019,5 hPa 0,0 l/m 13,2 km/h (3 Bft) W-SW 256 0 min 0,000 mm 148 W/m 0,1 C -3,0 C 35,4 km/h (5 Bft) 100 %
01.02.2022 12:30 2,3 C 2,3 C 2,4 C 85 % 1019,5 hPa 0,0 l/m 17,1 km/h (3 Bft) SW 217 10 min 0,000 mm 160 W/m 0,0 C -5,3 C 46,7 km/h (6 Bft) 100 %
01.02.2022 12:40 2,3 C 2,3 C 2,3 C 85 % 1019,1 hPa 0,0 l/m 22,0 km/h (4 Bft) SW 217 0 min 0,000 mm 139 W/m 0,0 C -7,5 C 51,5 km/h (7 Bft) 100 %
01.02.2022 12:50 2,2 C 2,2 C 2,3 C 86 % 1019,0 hPa 0,0 l/m 13,8 km/h (3 Bft) W 264 0 min 0,000 mm 93 W/m 0,1 C -3,6 C 33,8 km/h (5 Bft) 100 %
01.02.2022 13:00 2,0 C 2,0 C 2,2 C 88 % 1018,6 hPa 0,1 l/m 13,2 km/h (3 Bft) W-SW 238 0 min 0,051 mm 90 W/m 0,2 C -3,5 C 33,8 km/h (5 Bft) 100 %
01.02.2022 13:10 1,8 C 1,8 C 2,0 C 90 % 1018,5 hPa 0,0 l/m 14,8 km/h (3 Bft) S-SW 203 0 min 0,000 mm 93 W/m 0,3 C -4,7 C 29,0 km/h (5 Bft) 100 %
01.02.2022 13:20 1,7 C 1,7 C 1,8 C 91 % 1018,2 hPa 0,1 l/m 16,8 km/h (3 Bft) SW 227 0 min 0,000 mm 58 W/m 0,4 C -5,9 C 35,4 km/h (5 Bft) 100 %
01.02.2022 13:30 1,6 C 1,6 C 1,7 C 92 % 1017,8 hPa 0,2 l/m 11,8 km/h (2 Bft) SW 221 0 min 0,000 mm 63 W/m 0,4 C -3,0 C 32,2 km/h (5 Bft) 100 %
01.02.2022 13:40 1,6 C 1,6 C 1,6 C 92 % 1017,6 hPa 0,0 l/m 9,7 km/h (2 Bft) W 266 0 min 0,000 mm 42 W/m 0,4 C -1,4 C 22,5 km/h (4 Bft) 100 %
01.02.2022 13:50 1,6 C 1,6 C 1,6 C 92 % 1017,6 hPa 0,2 l/m 13,4 km/h (3 Bft) S-SW 211 0 min 0,000 mm 44 W/m 0,4 C -4,1 C 40,2 km/h (6 Bft) 100 %
01.02.2022 14:00 1,6 C 1,5 C 1,6 C 92 % 1017,3 hPa 0,0 l/m 10,7 km/h (2 Bft) W-SW 249 0 min 0,026 mm 54 W/m 0,4 C -2,2 C 27,4 km/h (4 Bft) 100 %
01.02.2022 14:10 1,5 C 1,5 C 1,6 C 92 % 1017,1 hPa 0,2 l/m 9,3 km/h (2 Bft) SW 222 0 min 0,000 mm 42 W/m 0,3 C -1,2 C 30,6 km/h (5 Bft) 100 %
01.02.2022 14:20 1,4 C 1,4 C 1,5 C 93 % 1016,7 hPa 0,0 l/m 13,6 km/h (3 Bft) W-SW 237 0 min 0,000 mm 42 W/m 0,4 C -4,4 C 32,2 km/h (5 Bft) 99 %
01.02.2022 14:30 1,4 C 1,4 C 1,4 C 93 % 1016,7 hPa 0,2 l/m 16,6 km/h (3 Bft) W-SW 250 0 min 0,000 mm 47 W/m 0,4 C -6,2 C 33,8 km/h (5 Bft) 100 %
01.02.2022 14:40 1,3 C 1,3 C 1,4 C 92 % 1016,5 hPa 0,2 l/m 17,2 km/h (3 Bft) W-SW 252 0 min 0,000 mm 49 W/m 0,1 C -6,6 C 38,6 km/h (5 Bft) 100 %
01.02.2022 14:50 1,3 C 1,2 C 1,3 C 93 % 1016,3 hPa 0,2 l/m 11,7 km/h (2 Bft) SW 228 0 min 0,000 mm 33 W/m 0,3 C -3,3 C 27,4 km/h (4 Bft) 100 %
01.02.2022 15:00 1,2 C 1,2 C 1,3 C 93 % 1016,1 hPa 0,2 l/m 12,8 km/h (3 Bft) S-SW 209 0 min 0,025 mm 53 W/m 0,2 C -4,2 C 29,0 km/h (5 Bft) 100 %
01.02.2022 15:10 1,2 C 1,2 C 1,2 C 93 % 1015,9 hPa 0,1 l/m 14,7 km/h (3 Bft) SW 225 0 min 0,000 mm 47 W/m 0,2 C -5,4 C 33,8 km/h (5 Bft) 99 %
01.02.2022 15:20 1,1 C 1,1 C 1,2 C 93 % 1015,6 hPa 0,2 l/m 11,0 km/h (2 Bft) SW 225 0 min 0,000 mm 35 W/m 0,1 C -3,0 C 35,4 km/h (5 Bft) 100 %
01.02.2022 15:30 1,1 C 1,1 C 1,1 C 93 % 1015,5 hPa 0,1 l/m 19,0 km/h (3 Bft) SW 229 0 min 0,000 mm 33 W/m 0,1 C -7,7 C 38,6 km/h (5 Bft) 100 %
01.02.2022 15:40 0,9 C 0,9 C 1,1 C 92 % 1015,5 hPa 0,2 l/m 13,1 km/h (3 Bft) SW 221 0 min 0,000 mm 23 W/m -0,2 C -4,7 C 37,0 km/h (5 Bft) 99 %
01.02.2022 15:50 0,8 C 0,8 C 1,0 C 93 % 1015,4 hPa 0,2 l/m 14,9 km/h (3 Bft) W-SW 237 0 min 0,000 mm 19 W/m -0,2 C -6,0 C 27,4 km/h (4 Bft) 100 %
01.02.2022 16:00 0,9 C 0,8 C 0,9 C 92 % 1015,2 hPa 0,1 l/m 14,6 km/h (3 Bft) W-SW 237 0 min 0,025 mm 25 W/m -0,2 C -5,7 C 35,4 km/h (5 Bft) 100 %
01.02.2022 16:10 0,8 C 0,8 C 0,9 C 92 % 1015,0 hPa 0,2 l/m 16,8 km/h (3 Bft) S-SW 210 0 min 0,000 mm 16 W/m -0,3 C -7,0 C 38,6 km/h (5 Bft) 99 %
01.02.2022 16:20 0,8 C 0,8 C 0,9 C 92 % 1015,1 hPa 0,2 l/m 15,3 km/h (3 Bft) W 263 0 min 0,000 mm 12 W/m -0,3 C -6,2 C 30,6 km/h (5 Bft) 91 %
01.02.2022 16:30 0,9 C 0,8 C 0,9 C 92 % 1014,9 hPa 0,2 l/m 13,6 km/h (3 Bft) SW 230 0 min 0,000 mm 7 W/m -0,2 C -5,0 C 27,4 km/h (4 Bft) 100 %
01.02.2022 16:40 1,1 C 0,9 C 1,1 C 92 % 1014,8 hPa 0,1 l/m 15,3 km/h (3 Bft) W-SW 247 0 min 0,000 mm 5 W/m -0,1 C -5,8 C 30,6 km/h (5 Bft) 100 %
01.02.2022 16:50 1,2 C 1,1 C 1,2 C 92 % 1014,3 hPa 0,2 l/m 16,3 km/h (3 Bft) SW 219 0 min 0,000 mm 0 W/m 0,0 C -6,3 C 32,2 km/h (5 Bft) 100 %
01.02.2022 17:00 1,4 C 1,2 C 1,4 C 92 % 1014,1 hPa 0,2 l/m 20,5 km/h (4 Bft) W 264 0 min 0,026 mm 0 W/m 0,2 C -8,0 C 38,6 km/h (5 Bft) 91 %
01.02.2022 17:20 1,6 C 1,2 C 1,6 C 92 % 1013,9 hPa 0,2 l/m 13,0 km/h (3 Bft) W-SW 244 0 min 0,000 mm 0 W/m 0,4 C -3,8 C 32,2 km/h (5 Bft) 99 %
01.02.2022 17:30 1,7 C 1,6 C 1,7 C 92 % 1014,0 hPa 0,2 l/m 12,7 km/h (3 Bft) SW 233 0 min 0,000 mm 0 W/m 0,5 C -3,5 C 37,0 km/h (5 Bft) 100 %
01.02.2022 17:40 1,8 C 1,7 C 1,8 C 92 % 1014,1 hPa 0,0 l/m 13,7 km/h (3 Bft) SW 223 0 min 0,000 mm 0 W/m 0,6 C -4,0 C 41,8 km/h (6 Bft) 100 %
01.02.2022 17:50 1,9 C 1,8 C 1,9 C 92 % 1013,9 hPa 0,1 l/m 13,0 km/h (3 Bft) W-SW 251 0 min 0,000 mm 0 W/m 0,7 C -3,5 C 35,4 km/h (5 Bft) 90 %
01.02.2022 18:00 2,1 C 1,9 C 2,1 C 92 % 1014,1 hPa 0,2 l/m 12,9 km/h (3 Bft) W 280 0 min 0,000 mm 0 W/m 0,9 C -3,2 C 29,0 km/h (5 Bft) 100 %
01.02.2022 18:10 2,1 C 2,0 C 2,1 C 92 % 1013,9 hPa 0,0 l/m 16,2 km/h (3 Bft) S-SW 207 0 min 0,000 mm 0 W/m 0,9 C -5,1 C 41,8 km/h (6 Bft) 100 %
01.02.2022 18:20 2,2 C 2,1 C 2,2 C 92 % 1013,8 hPa 0,1 l/m 13,4 km/h (3 Bft) W-SW 254 0 min 0,000 mm 0 W/m 1,0 C -3,4 C 32,2 km/h (5 Bft) 100 %
01.02.2022 18:30 2,3 C 2,2 C 2,3 C 92 % 1013,7 hPa 0,2 l/m 13,0 km/h (3 Bft) SW 236 0 min 0,000 mm 0 W/m 1,1 C -3,0 C 30,6 km/h (5 Bft) 100 %
01.02.2022 18:40 2,3 C 2,3 C 2,3 C 92 % 1013,6 hPa 0,0 l/m 19,4 km/h (3 Bft) W-SW 248 0 min 0,000 mm 0 W/m 1,1 C -6,4 C 41,8 km/h (6 Bft) 100 %
01.02.2022 18:50 2,3 C 2,3 C 2,3 C 92 % 1013,6 hPa 0,0 l/m 15,7 km/h (3 Bft) W-SW 257 0 min 0,000 mm 0 W/m 1,1 C -4,6 C 41,8 km/h (6 Bft) 100 %
01.02.2022 19:00 2,4 C 2,3 C 2,4 C 92 % 1013,5 hPa 0,0 l/m 13,8 km/h (3 Bft) W 259 0 min 0,000 mm 0 W/m 1,2 C -3,4 C 37,0 km/h (5 Bft) 100 %
01.02.2022 19:10 2,4 C 2,3 C 2,4 C 92 % 1013,4 hPa 0,0 l/m 16,5 km/h (3 Bft) W-SW 250 0 min 0,000 mm 0 W/m 1,2 C -4,9 C 35,4 km/h (5 Bft) 99 %
01.02.2022 19:20 2,5 C 2,4 C 2,5 C 92 % 1013,3 hPa 0,0 l/m 12,8 km/h (3 Bft) W-SW 245 0 min 0,000 mm 0 W/m 1,3 C -2,6 C 35,4 km/h (5 Bft) 100 %
01.02.2022 19:30 2,6 C 2,5 C 2,6 C 92 % 1013,4 hPa 0,0 l/m 15,2 km/h (3 Bft) W-SW 252 0 min 0,000 mm 0 W/m 1,4 C -3,9 C 33,8 km/h (5 Bft) 100 %
01.02.2022 19:40 2,6 C 2,6 C 2,6 C 92 % 1013,3 hPa 0,0 l/m 16,8 km/h (3 Bft) SW 234 0 min 0,000 mm 0 W/m 1,4 C -4,8 C 38,6 km/h (5 Bft) 100 %
01.02.2022 19:50 2,7 C 2,6 C 2,7 C 92 % 1013,3 hPa 0,0 l/m 14,4 km/h (3 Bft) W-SW 255 0 min 0,000 mm 0 W/m 1,5 C -3,4 C 35,4 km/h (5 Bft) 100 %
01.02.2022 20:00 2,7 C 2,6 C 2,7 C 92 % 1013,3 hPa 0,0 l/m 13,8 km/h (3 Bft) W-SW 248 0 min 0,000 mm 0 W/m 1,5 C -3,0 C 30,6 km/h (5 Bft) 100 %
01.02.2022 20:10 2,8 C 2,7 C 2,8 C 92 % 1013,5 hPa 0,0 l/m 12,8 km/h (3 Bft) W-NW 285 0 min 0,000 mm 0 W/m 1,6 C -2,3 C 38,6 km/h (5 Bft) 91 %
01.02.2022 20:20 2,8 C 2,8 C 2,8 C 92 % 1013,1 hPa 0,0 l/m 13,2 km/h (3 Bft) W 279 0 min 0,000 mm 0 W/m 1,6 C -2,5 C 33,8 km/h (5 Bft) 100 %
01.02.2022 20:30 2,9 C 2,8 C 2,9 C 92 % 1013,2 hPa 0,0 l/m 14,7 km/h (3 Bft) W-NW 288 0 min 0,000 mm 0 W/m 1,7 C -3,3 C 40,2 km/h (6 Bft) 100 %
01.02.2022 20:40 2,9 C 2,9 C 3,0 C 92 % 1013,5 hPa 0,0 l/m 12,4 km/h (3 Bft) W 264 0 min 0,000 mm 0 W/m 1,7 C -1,9 C 29,0 km/h (5 Bft) 100 %
01.02.2022 20:50 3,1 C 2,9 C 3,1 C 92 % 1013,5 hPa 0,0 l/m 14,3 km/h (3 Bft) W-NW 285 0 min 0,000 mm 0 W/m 1,9 C -2,8 C 35,4 km/h (5 Bft) 100 %
01.02.2022 21:00 3,1 C 3,1 C 3,1 C 92 % 1013,2 hPa 0,0 l/m 18,7 km/h (3 Bft) W 273 0 min 0,000 mm 0 W/m 1,9 C -5,1 C 37,0 km/h (5 Bft) 100 %
01.02.2022 21:10 3,2 C 3,1 C 3,2 C 92 % 1013,1 hPa 0,0 l/m 14,5 km/h (3 Bft) W-SW 247 0 min 0,000 mm 0 W/m 2,0 C -2,8 C 32,2 km/h (5 Bft) 97 %
01.02.2022 21:20 3,3 C 3,2 C 3,3 C 92 % 1012,9 hPa 0,0 l/m 16,1 km/h (3 Bft) W 270 0 min 0,000 mm 0 W/m 2,1 C -3,6 C 38,6 km/h (5 Bft) 98 %
01.02.2022 21:30 3,4 C 3,3 C 3,4 C 92 % 1012,6 hPa 0,0 l/m 17,7 km/h (3 Bft) W-SW 247 0 min 0,000 mm 0 W/m 2,2 C -4,2 C 41,8 km/h (6 Bft) 98 %
01.02.2022 21:40 3,4 C 3,4 C 3,4 C 92 % 1012,6 hPa 0,0 l/m 14,5 km/h (3 Bft) W-SW 247 0 min 0,000 mm 0 W/m 2,2 C -2,6 C 38,6 km/h (5 Bft) 98 %
01.02.2022 21:50 3,6 C 3,4 C 3,6 C 92 % 1012,9 hPa 0,0 l/m 14,5 km/h (3 Bft) W 270 0 min 0,000 mm 0 W/m 2,4 C -2,3 C 33,8 km/h (5 Bft) 98 %
01.02.2022 22:00 3,6 C 3,5 C 3,6 C 92 % 1013,0 hPa 0,0 l/m 16,1 km/h (3 Bft) W 270 0 min 0,000 mm 0 W/m 2,4 C -3,2 C 35,4 km/h (5 Bft) 98 %
01.02.2022 22:10 3,7 C 3,6 C 3,7 C 92 % 1013,0 hPa 0,0 l/m 12,9 km/h (3 Bft) W 270 0 min 0,000 mm 0 W/m 2,5 C -1,3 C 27,4 km/h (4 Bft) 98 %
01.02.2022 22:20 3,8 C 3,7 C 3,8 C 92 % 1013,0 hPa 0,0 l/m 9,7 km/h (2 Bft) W 270 0 min 0,000 mm 0 W/m 2,6 C 1,0 C 29,0 km/h (5 Bft) 97 %
01.02.2022 22:30 4,0 C 3,8 C 4,0 C 92 % 1013,0 hPa 0,0 l/m 11,3 km/h (2 Bft) W 270 0 min 0,000 mm 0 W/m 2,8 C 0,1 C 29,0 km/h (5 Bft) 98 %
01.02.2022 22:40 4,1 C 4,0 C 4,1 C 92 % 1013,0 hPa 0,0 l/m 11,3 km/h (2 Bft) W 270 0 min 0,000 mm 0 W/m 2,9 C 0,2 C 25,7 km/h (4 Bft) 89 %
01.02.2022 22:50 4,2 C 4,1 C 4,2 C 92 % 1013,2 hPa 0,0 l/m 11,3 km/h (2 Bft) W 270 0 min 0,000 mm 0 W/m 3,0 C 0,3 C 30,6 km/h (5 Bft) 97 %
01.02.2022 23:00 4,3 C 4,2 C 4,3 C 92 % 1013,3 hPa 0,0 l/m 11,3 km/h (2 Bft) W 270 0 min 0,000 mm 0 W/m 3,1 C 0,4 C 32,2 km/h (5 Bft) 97 %
01.02.2022 23:10 4,3 C 4,3 C 4,3 C 92 % 1013,3 hPa 0,0 l/m 9,7 km/h (2 Bft) W-NW 292 0 min 0,000 mm 0 W/m 3,1 C 1,5 C 22,5 km/h (4 Bft) 98 %
01.02.2022 23:20 4,3 C 4,3 C 4,3 C 92 % 1013,5 hPa 0,0 l/m 9,7 km/h (2 Bft) W-NW 292 0 min 0,000 mm 0 W/m 3,1 C 1,5 C 25,7 km/h (4 Bft) 97 %
01.02.2022 23:30 4,3 C 4,3 C 4,3 C 92 % 1013,7 hPa 0,0 l/m 4,8 km/h (1 Bft) W-NW 292 0 min 0,000 mm 0 W/m 3,1 C 4,3 C 16,1 km/h (3 Bft) 98 %
01.02.2022 23:40 4,4 C 4,3 C 4,4 C 92 % 1013,6 hPa 0,0 l/m 6,4 km/h (2 Bft) W 270 0 min 0,000 mm 0 W/m 3,2 C 4,4 C 19,3 km/h (3 Bft) 98 %
01.02.2022 23:50 4,5 C 4,4 C 4,5 C 92 % 1013,6 hPa 0,0 l/m 8,0 km/h (2 Bft) W-NW 292 0 min 0,000 mm 0 W/m 3,3 C 3,1 C 24,1 km/h (4 Bft) 98 %
_ Min-Zeit 15:50 15:50 16:00 09:00 21:30 - 02:30 - - - - - 08:50 17:00 02:30 22:40
Minimum _ 0,8 C 0,8 C 0,9 C 85 % 1012,6 hPa - 0,0 km/h (0 Bft) - - - - - -0,7 C -8,0 C 0,0 km/h (0 Bft) 89 %
_ Max-Zeit 23:50 23:50 23:50 00:00 09:30 02:10 12:40 - - 12:30 11:00 12:30 23:50 23:40 12:40 00:00
Maximum _ 4,5 C 4,4 C 4,5 C 93 % 1021,4 hPa 0,4 l/m 22,0 km/h
SW (4 Bft)
- - 10 min 0,051 mm 160 W/m 3,3 C 4,4 C 51,5 km/h
W-SW (7 Bft)
100 %
Durchschnitt _ 2,0 C 2,0 C 2,1 C 91 % 1017,0 hPa #6,4 l/m 10,9 km/h (2 Bft) W-NW - #10 min. #0,305 mm 59 W/m 0,7 C -1,8 C 27,0 km/h (4 Bft) 99 %
PRIVATE WETTERSTATION BILLIGHEIM-ALLFELD - www.neckar-odenwald-wetter.de - Holger Sonntag